createdAt,value
2022-08-18T00:02:07.212Z,39.63
2022-08-18T00:04:49.125Z,42.28
2022-08-18T00:07:19.139Z,45.28
2022-08-18T00:09:47.709Z,47.40
2022-08-18T00:12:19.387Z,44.08
2022-08-18T00:14:46.980Z,42.60
2022-08-18T00:17:14.606Z,50.67
2022-08-18T00:19:46.716Z,44.70
2022-08-18T00:22:16.722Z,45.20
2022-08-18T00:24:48.316Z,41.50
2022-08-18T00:27:19.476Z,40.47
2022-08-18T00:29:48.673Z,43.20
2022-08-18T00:32:16.931Z,43.40
2022-08-18T00:34:44.208Z,43.85
2022-08-18T00:37:11.346Z,45.72
2022-08-18T00:39:40.657Z,43.33
2022-08-18T00:42:27.015Z,40.08
2022-08-18T00:44:57.706Z,42.53
2022-08-18T00:47:32.947Z,41.35
2022-08-18T00:50:14.857Z,39.42
2022-08-18T00:52:43.273Z,41.30
2022-08-18T00:55:11.015Z,41.90
2022-08-18T00:57:38.119Z,47.53
2022-08-18T01:00:11.462Z,45.83
2022-08-18T01:02:42.717Z,46.90
2022-08-18T01:05:14.596Z,43.05
2022-08-18T01:07:48.550Z,44.40
2022-08-18T01:10:17.154Z,46.42
2022-08-18T01:12:46.832Z,48.42
2022-08-18T01:15:28.136Z,49.05
2022-08-18T01:18:16.172Z,46.67
2022-08-18T01:21:05.615Z,52.90
2022-08-18T01:23:32.685Z,50.30
2022-08-18T01:25:59.922Z,51.22
2022-08-18T01:28:31.692Z,50.88
2022-08-18T01:30:59.510Z,48.40
2022-08-18T01:33:32.490Z,50.95
2022-08-18T01:36:02.568Z,49.55
2022-08-18T01:38:32.076Z,43.65
2022-08-18T01:41:26.572Z,41.45
2022-08-18T01:43:47.440Z,42.85
2022-08-18T01:46:20.687Z,39.78
2022-08-18T01:48:48.873Z,40.55
2022-08-18T01:51:16.065Z,38.67
2022-08-18T01:53:43.132Z,40.22
2022-08-18T01:56:10.193Z,38.88
2022-08-18T01:58:37.433Z,39.88
2022-08-18T02:01:05.366Z,38.30
2022-08-18T02:03:36.959Z,38.47
2022-08-18T02:06:05.637Z,38.65
2022-08-18T02:08:32.975Z,41.42
2022-08-18T02:11:00.818Z,39.95
2022-08-18T02:13:28.065Z,43.22
2022-08-18T02:15:55.121Z,39.65
2022-08-18T02:18:41.549Z,41.25
2022-08-18T02:21:11.929Z,40.75
2022-08-18T02:23:39.747Z,45.70
2022-08-18T02:26:08.457Z,42.75
2022-08-18T02:28:35.962Z,43.70
2022-08-18T02:31:05.664Z,41.42
2022-08-18T02:33:32.729Z,41.20
2022-08-18T02:35:59.881Z,42.13
2022-08-18T02:38:26.956Z,42.05
2022-08-18T02:41:02.314Z,40.92
2022-08-18T02:43:33.780Z,38.88
2022-08-18T02:46:03.417Z,40.03
2022-08-18T02:48:36.525Z,42.40
2022-08-18T02:51:04.590Z,43.78
2022-08-18T02:53:32.196Z,43.78
2022-08-18T02:56:32.802Z,41.13
2022-08-18T02:59:09.908Z,42.25
2022-08-18T03:01:39.398Z,40.55
2022-08-18T03:04:07.490Z,40.03
2022-08-18T03:06:36.522Z,44.42
2022-08-18T03:09:04.481Z,40.03
2022-08-18T03:11:31.836Z,39.65
2022-08-18T03:14:00.226Z,40.33
2022-08-18T03:16:27.531Z,38.40
2022-08-18T03:18:54.962Z,42.55
2022-08-18T03:21:24.250Z,43.80
2022-08-18T03:24:00.536Z,43.60
2022-08-18T03:26:29.644Z,42.38
2022-08-18T03:28:56.830Z,45.67
2022-08-18T03:31:25.305Z,45.53
2022-08-18T03:33:55.992Z,46.33
2022-08-18T03:36:28.578Z,50.10
2022-08-18T03:38:55.677Z,50.10
2022-08-18T03:41:43.737Z,47.90
2022-08-18T03:44:11.525Z,50.42
2022-08-18T03:46:38.602Z,53.00
2022-08-18T03:49:05.700Z,54.90
2022-08-18T03:51:33.258Z,53.97
2022-08-18T03:54:01.848Z,54.85
2022-08-18T03:56:33.046Z,53.10
2022-08-18T03:59:01.656Z,58.47
2022-08-18T04:01:30.314Z,54.97
2022-08-18T04:04:02.105Z,52.70
2022-08-18T04:06:31.059Z,55.88
2022-08-18T04:09:00.406Z,53.53
2022-08-18T04:11:28.512Z,52.53
2022-08-18T04:14:00.909Z,58.33
2022-08-18T04:16:35.036Z,53.35
2022-08-18T04:19:05.156Z,60.30
2022-08-18T04:21:33.542Z,55.58
2022-08-18T04:24:05.151Z,53.63
2022-08-18T04:26:37.810Z,52.30
2022-08-18T04:29:06.280Z,52.67
2022-08-18T04:31:33.354Z,52.60
2022-08-18T04:34:01.299Z,54.88
2022-08-18T04:36:29.564Z,52.47
2022-08-18T04:38:57.148Z,52.28
2022-08-18T04:41:26.958Z,52.83
2022-08-18T04:44:04.541Z,53.10
2022-08-18T04:46:36.064Z,52.88
2022-08-18T04:49:03.456Z,47.85
2022-08-18T04:52:26.764Z,54.67
2022-08-18T04:54:17.645Z,50.10
2022-08-18T04:56:44.973Z,51.65
2022-08-18T04:59:13.082Z,53.50
2022-08-18T05:01:47.704Z,51.05
2022-08-18T05:04:15.924Z,50.70
2022-08-18T05:06:43.802Z,50.60
2022-08-18T05:09:12.265Z,49.47
2022-08-18T05:11:39.406Z,52.97
2022-08-18T05:14:07.945Z,54.13
2022-08-18T05:16:36.544Z,50.45
2022-08-18T05:19:16.126Z,47.17
2022-08-18T05:21:50.670Z,49.75
2022-08-18T05:24:19.164Z,46.85
2022-08-18T05:26:46.643Z,51.30
2022-08-18T05:29:19.060Z,55.63
2022-08-18T05:31:47.636Z,50.40
2022-08-18T05:34:14.798Z,51.60
2022-08-18T05:37:04.900Z,48.95
2022-08-18T05:39:40.907Z,46.83
2022-08-18T05:42:07.979Z,51.25
2022-08-18T05:44:37.387Z,49.17
2022-08-18T05:47:12.584Z,51.60
2022-08-18T05:49:40.103Z,51.83
2022-08-18T05:52:09.278Z,52.53
2022-08-18T05:55:00.612Z,49.75
2022-08-18T05:57:31.131Z,49.10
2022-08-18T05:59:58.569Z,51.08
2022-08-18T06:02:31.731Z,46.42
2022-08-18T06:05:11.837Z,48.50
2022-08-18T06:07:44.226Z,48.28
2022-08-18T06:10:12.159Z,48.00
2022-08-18T06:12:46.606Z,45.60
2022-08-18T06:15:16.791Z,47.15
2022-08-18T06:17:59.027Z,47.22
2022-08-18T06:20:42.153Z,45.75
2022-08-18T06:23:09.287Z,43.30
2022-08-18T06:25:55.307Z,48.83
2022-08-18T06:28:22.487Z,48.10
2022-08-18T06:30:58.923Z,42.13
2022-08-18T06:33:25.986Z,45.13
2022-08-18T06:35:55.806Z,40.85
2022-08-18T06:38:39.077Z,44.95
2022-08-18T06:41:09.181Z,48.35
2022-08-18T06:44:00.996Z,38.60
2022-08-18T06:46:33.207Z,33.05
2022-08-18T06:49:05.503Z,30.17
2022-08-18T06:51:35.300Z,29.17
2022-08-18T06:54:07.740Z,26.90
2022-08-18T06:56:34.901Z,27.60
2022-08-18T06:59:20.580Z,24.38
2022-08-18T07:01:49.141Z,23.98
2022-08-18T07:04:35.225Z,22.33
2022-08-18T07:07:13.117Z,23.70
2022-08-18T07:09:40.223Z,23.52
2022-08-18T07:12:08.624Z,19.70
2022-08-18T07:14:55.627Z,20.17
2022-08-18T07:17:43.112Z,22.20
2022-08-18T07:20:20.193Z,20.30
2022-08-18T07:22:59.889Z,16.10
2022-08-18T07:25:29.414Z,19.55
2022-08-18T07:27:57.128Z,17.70
2022-08-18T07:30:32.715Z,17.63
2022-08-18T07:33:05.982Z,17.17
2022-08-18T07:35:39.356Z,16.50
2022-08-18T07:38:39.035Z,21.70
2022-08-18T07:41:26.736Z,14.52
2022-08-18T07:44:00.562Z,17.38
2022-08-18T07:46:45.294Z,16.77
2022-08-18T07:49:21.667Z,16.08
2022-08-18T07:51:53.306Z,15.23
2022-08-18T07:54:49.012Z,14.32
2022-08-18T07:57:19.900Z,16.08
2022-08-18T07:59:56.767Z,18.50
2022-08-18T08:02:41.736Z,16.27
2022-08-18T08:05:11.760Z,17.52
2022-08-18T08:07:42.151Z,17.65
2022-08-18T08:10:15.155Z,14.73
2022-08-18T08:12:45.020Z,16.33
2022-08-18T08:15:17.538Z,15.82
2022-08-18T08:17:54.658Z,12.85
2022-08-18T08:20:33.093Z,13.85
2022-08-18T08:23:00.383Z,14.98
2022-08-18T08:25:46.253Z,13.90
2022-08-18T08:28:22.881Z,11.25
2022-08-18T08:30:49.951Z,14.45
2022-08-18T08:33:29.808Z,12.80
2022-08-18T08:35:57.058Z,17.45
2022-08-18T08:38:42.807Z,14.45
2022-08-18T08:41:25.711Z,12.27
2022-08-18T08:43:56.647Z,12.80
2022-08-18T08:46:25.404Z,16.13
2022-08-18T08:49:18.763Z,14.55
2022-08-18T08:51:49.341Z,15.13
2022-08-18T08:54:38.913Z,15.48
2022-08-18T08:57:06.484Z,12.88
2022-08-18T08:59:38.072Z,12.98
2022-08-18T09:02:08.684Z,15.25
2022-08-18T09:04:39.306Z,14.68
2022-08-18T09:07:27.760Z,16.60
2022-08-18T09:10:15.649Z,14.82
2022-08-18T09:12:45.624Z,13.00
2022-08-18T09:15:18.638Z,13.20
2022-08-18T09:17:54.529Z,15.77
2022-08-18T09:20:29.630Z,14.77
2022-08-18T09:22:59.635Z,17.33
2022-08-18T09:25:53.177Z,16.17
2022-08-18T09:28:29.419Z,13.40
2022-08-18T09:31:03.047Z,15.68
2022-08-18T09:33:33.391Z,16.75
2022-08-18T09:36:10.239Z,14.45
2022-08-18T09:39:04.101Z,13.90
2022-08-18T09:41:37.991Z,17.08
2022-08-18T09:44:18.205Z,13.98
2022-08-18T09:46:48.969Z,16.67
2022-08-18T09:49:26.610Z,15.70
2022-08-18T09:51:56.781Z,10.70
2022-08-18T09:54:25.618Z,13.45
2022-08-18T09:56:55.437Z,13.15
2022-08-18T09:59:36.382Z,14.45
2022-08-18T10:02:06.486Z,13.77
2022-08-18T10:04:51.553Z,14.18
2022-08-18T10:07:35.360Z,8.02
2022-08-18T10:10:59.397Z,7.07
2022-08-18T10:13:12.713Z,7.55
2022-08-18T10:15:55.708Z,9.45
2022-08-18T10:18:41.461Z,13.10
2022-08-18T10:21:31.512Z,10.23
2022-08-18T10:24:35.306Z,11.57
2022-08-18T10:26:54.267Z,16.17
2022-08-18T10:29:25.941Z,10.10
2022-08-18T10:31:59.680Z,8.00
2022-08-18T10:37:36.840Z,11.85
2022-08-18T10:40:04.788Z,7.82
2022-08-18T10:42:37.892Z,12.70
2022-08-18T10:45:12.540Z,12.60
2022-08-18T10:47:43.210Z,12.27
2022-08-18T10:50:21.355Z,13.70
2022-08-18T10:53:24.018Z,13.00
2022-08-18T10:56:01.166Z,8.02
2022-08-18T10:58:45.486Z,7.30
2022-08-18T11:01:19.020Z,8.60
2022-08-18T11:03:52.052Z,11.20
2022-08-18T11:06:26.861Z,7.35
2022-08-18T11:08:57.750Z,10.25
2022-08-18T11:14:20.664Z,10.95
2022-08-18T11:17:07.051Z,11.65
2022-08-18T11:19:42.407Z,7.45
2022-08-18T11:22:31.119Z,10.93
2022-08-18T11:24:59.539Z,10.50
2022-08-18T11:27:30.808Z,13.00
2022-08-18T11:30:02.175Z,13.95
2022-08-18T11:32:32.711Z,9.05
2022-08-18T11:35:04.945Z,7.78
2022-08-18T11:41:02.424Z,15.25
2022-08-18T11:43:15.294Z,11.38
2022-08-18T11:45:56.516Z,12.98
2022-08-18T11:48:36.048Z,6.97
2022-08-18T11:51:17.459Z,13.40
2022-08-18T11:53:57.342Z,12.35
2022-08-18T11:56:31.392Z,8.27
2022-08-18T11:59:02.025Z,9.23
2022-08-18T12:01:30.910Z,11.98
2022-08-18T12:04:17.899Z,16.73
2022-08-18T12:06:59.453Z,9.30
2022-08-18T12:12:32.558Z,11.13
2022-08-18T12:15:22.653Z,10.77
2022-08-18T12:17:52.612Z,6.28
2022-08-18T12:20:20.322Z,7.43
2022-08-18T12:22:49.570Z,10.68
2022-08-18T12:25:24.397Z,9.20
2022-08-18T12:27:52.720Z,11.55
2022-08-18T12:30:20.055Z,11.23
2022-08-18T12:32:50.794Z,17.10
2022-08-18T12:35:22.905Z,11.10
2022-08-18T12:37:59.623Z,8.82
2022-08-18T12:40:27.877Z,13.05
2022-08-18T12:42:55.787Z,13.43
2022-08-18T12:48:11.843Z,7.28
2022-08-18T12:50:50.087Z,7.80
2022-08-18T12:53:28.998Z,8.27
2022-08-18T12:56:05.819Z,9.15
2022-08-18T12:58:33.185Z,8.13
2022-08-18T13:01:03.745Z,9.65
2022-08-18T13:03:31.378Z,9.73
2022-08-18T13:06:02.626Z,12.88
2022-08-18T13:08:33.722Z,10.98
2022-08-18T13:11:15.273Z,20.73
2022-08-18T13:13:53.251Z,12.70
2022-08-18T13:16:38.567Z,9.93
2022-08-18T13:19:07.246Z,11.00
2022-08-18T13:21:41.029Z,12.95
2022-08-18T13:24:09.398Z,11.32
2022-08-18T13:26:38.960Z,11.50
2022-08-18T13:29:10.000Z,8.25
2022-08-18T13:31:39.726Z,8.80
2022-08-18T13:34:11.829Z,10.55
2022-08-18T13:36:47.967Z,10.30
2022-08-18T13:39:16.146Z,10.93
2022-08-18T13:41:45.562Z,7.88
2022-08-18T13:44:15.005Z,12.07
2022-08-18T13:46:46.826Z,9.18
2022-08-18T13:49:15.325Z,11.55
2022-08-18T13:51:47.477Z,8.82
2022-08-18T13:54:30.901Z,10.52
2022-08-18T13:56:59.504Z,9.65
2022-08-18T13:59:31.569Z,9.93
2022-08-18T14:01:58.794Z,8.80
2022-08-18T14:04:28.273Z,10.70
2022-08-18T14:06:59.152Z,11.32
2022-08-18T14:09:35.774Z,11.73
2022-08-18T14:12:05.599Z,13.05
2022-08-18T14:14:33.616Z,10.25
2022-08-18T14:17:01.701Z,9.02
2022-08-18T14:19:47.462Z,10.30
2022-08-18T14:22:33.286Z,9.77
2022-08-18T14:25:22.340Z,11.43
2022-08-18T14:27:57.022Z,11.02
2022-08-18T14:30:24.344Z,12.02
2022-08-18T14:32:53.686Z,11.38
2022-08-18T14:35:33.041Z,9.30
2022-08-18T14:38:10.022Z,10.40
2022-08-18T14:40:38.783Z,11.18
2022-08-18T14:43:10.820Z,11.45
2022-08-18T14:45:38.305Z,10.98
2022-08-18T14:48:07.521Z,9.90
2022-08-18T14:50:38.467Z,9.52
2022-08-18T14:53:06.225Z,11.95
2022-08-18T14:55:34.134Z,10.90
2022-08-18T14:58:01.380Z,11.43
2022-08-18T15:00:29.027Z,13.02
2022-08-18T15:02:57.487Z,12.35
2022-08-18T15:05:27.140Z,8.52
2022-08-18T15:07:54.503Z,9.80
2022-08-18T15:10:23.387Z,13.15
2022-08-18T15:12:54.964Z,12.13
2022-08-18T15:15:22.868Z,10.70
2022-08-18T15:17:52.639Z,10.48
2022-08-18T15:20:20.576Z,10.82
2022-08-18T15:23:14.830Z,11.80
2022-08-18T15:25:44.921Z,10.07
2022-08-18T15:28:17.407Z,13.57
2022-08-18T15:30:50.855Z,11.15
2022-08-18T15:33:21.922Z,12.75
2022-08-18T15:35:51.501Z,10.88
2022-08-18T15:38:19.940Z,11.25
2022-08-18T15:40:52.223Z,12.95
2022-08-18T15:43:25.409Z,13.10
2022-08-18T15:45:58.628Z,9.48
2022-08-18T15:48:26.502Z,10.57
2022-08-18T15:50:53.860Z,9.25
2022-08-18T15:53:23.641Z,10.88
2022-08-18T15:55:50.972Z,12.18
2022-08-18T15:58:22.434Z,10.38
2022-08-18T16:00:53.807Z,9.43
2022-08-18T16:03:21.472Z,11.30
2022-08-18T16:05:53.922Z,9.65
2022-08-18T16:08:22.193Z,15.48
2022-08-18T16:10:49.473Z,11.00
2022-08-18T16:13:16.619Z,12.07
2022-08-18T16:15:46.729Z,11.80
2022-08-18T16:18:14.696Z,12.48
2022-08-18T16:20:43.302Z,10.13
2022-08-18T16:23:12.168Z,9.63
2022-08-18T16:25:40.045Z,8.82
2022-08-18T16:28:07.365Z,10.43
2022-08-18T16:30:34.945Z,9.55
2022-08-18T16:33:03.491Z,6.93
2022-08-18T16:35:31.759Z,9.02
2022-08-18T16:38:03.217Z,10.30
2022-08-18T16:40:31.469Z,10.93
2022-08-18T16:43:00.478Z,9.02
2022-08-18T16:45:28.019Z,11.40
2022-08-18T16:47:55.771Z,6.28
2022-08-18T16:50:24.838Z,7.50
2022-08-18T16:52:52.578Z,10.48
2022-08-18T16:55:19.805Z,11.07
2022-08-18T16:58:19.283Z,6.07
2022-08-18T17:01:05.233Z,8.82
2022-08-18T17:03:51.270Z,8.32
2022-08-18T17:06:19.718Z,11.35
2022-08-18T17:08:47.021Z,10.57
2022-08-18T17:11:16.208Z,8.80
2022-08-18T17:13:44.409Z,12.25
2022-08-18T17:16:11.597Z,8.90
2022-08-18T17:18:39.284Z,9.45
2022-08-18T17:21:07.801Z,10.90
2022-08-18T17:23:38.991Z,12.98
2022-08-18T17:26:07.685Z,11.10
2022-08-18T17:28:47.978Z,10.23
2022-08-18T17:31:18.803Z,9.48
2022-08-18T17:33:46.047Z,10.27
2022-08-18T17:36:19.865Z,8.50
2022-08-18T17:38:50.028Z,9.43
2022-08-18T17:41:18.234Z,10.48
2022-08-18T17:46:28.978Z,8.95
2022-08-18T17:49:00.037Z,8.63
2022-08-18T17:51:35.013Z,7.60
2022-08-18T17:54:08.526Z,8.60
2022-08-18T17:56:53.504Z,10.25
2022-08-18T17:59:51.631Z,8.65
2022-08-18T18:02:29.522Z,11.30
2022-08-18T18:04:58.410Z,10.23
2022-08-18T18:07:27.662Z,8.13
2022-08-18T18:10:06.989Z,9.18
2022-08-18T18:12:35.632Z,9.60
2022-08-18T18:15:03.584Z,7.85
2022-08-18T18:17:32.544Z,12.20
2022-08-18T18:20:15.830Z,8.10
2022-08-18T18:22:43.996Z,12.07
2022-08-18T18:25:11.977Z,8.82
2022-08-18T18:27:41.857Z,8.82
2022-08-18T18:30:09.110Z,13.77
2022-08-18T18:32:49.152Z,12.63
2022-08-18T18:35:31.390Z,8.77
2022-08-18T18:38:03.240Z,11.55
2022-08-18T18:40:32.820Z,10.98
2022-08-18T18:43:18.687Z,9.15
2022-08-18T18:46:00.190Z,11.15
2022-08-18T18:48:48.324Z,11.35
2022-08-18T18:51:33.552Z,11.35
2022-08-18T18:54:10.538Z,11.40
2022-08-18T18:56:45.895Z,10.30
2022-08-18T18:59:35.561Z,9.13
2022-08-18T19:02:34.277Z,12.07
2022-08-18T19:05:21.332Z,9.57
2022-08-18T19:07:51.416Z,11.23
2022-08-18T19:10:39.033Z,14.10
2022-08-18T19:13:32.966Z,10.48
2022-08-18T19:16:25.196Z,13.05
2022-08-18T19:19:37.983Z,10.50
2022-08-18T19:22:08.640Z,14.00
2022-08-18T19:24:38.682Z,14.10
2022-08-18T19:27:07.791Z,12.68
2022-08-18T19:29:41.357Z,12.30
2022-08-18T19:32:16.217Z,11.52
2022-08-18T19:34:51.351Z,12.02
2022-08-18T19:37:32.874Z,15.10
2022-08-18T19:40:10.319Z,10.57
2022-08-18T19:42:40.220Z,14.35
2022-08-18T19:45:16.841Z,12.65
2022-08-18T19:47:47.581Z,10.82
2022-08-18T19:50:23.500Z,10.68
2022-08-18T19:52:57.769Z,13.57
2022-08-18T19:55:33.368Z,12.27
2022-08-18T19:58:19.293Z,11.35
2022-08-18T20:00:58.477Z,9.70
2022-08-18T20:03:51.988Z,11.15
2022-08-18T20:06:34.529Z,13.32
2022-08-18T20:09:02.371Z,12.15
2022-08-18T20:11:42.163Z,15.55
2022-08-18T20:14:14.100Z,11.85
2022-08-18T20:16:43.781Z,12.88
2022-08-18T20:19:30.359Z,13.50
2022-08-18T20:22:01.527Z,12.75
2022-08-18T20:24:31.639Z,13.55
2022-08-18T20:27:13.970Z,11.40
2022-08-18T20:29:43.209Z,11.55
2022-08-18T20:32:29.589Z,13.45
2022-08-18T20:35:13.657Z,11.65
2022-08-18T20:37:42.478Z,12.13
2022-08-18T20:40:30.041Z,11.02
2022-08-18T20:43:07.365Z,11.90
2022-08-18T20:45:36.862Z,10.35
2022-08-18T20:48:15.517Z,10.85
2022-08-18T20:50:50.354Z,12.77
2022-08-18T20:53:35.483Z,12.23
2022-08-18T20:56:09.393Z,11.60
2022-08-18T20:59:18.416Z,13.00
2022-08-18T21:01:53.110Z,13.57
2022-08-18T21:04:33.090Z,12.20
2022-08-18T21:07:00.313Z,12.32
2022-08-18T21:09:39.835Z,11.98
2022-08-18T21:12:08.179Z,11.73
2022-08-18T21:14:36.720Z,11.63
2022-08-18T21:17:13.068Z,15.07
2022-08-18T21:19:42.091Z,12.48
2022-08-18T21:22:11.741Z,11.82
2022-08-18T21:24:41.516Z,12.57
2022-08-18T21:27:13.078Z,12.52
2022-08-18T21:29:49.022Z,11.05
2022-08-18T21:32:21.966Z,11.98
2022-08-18T21:34:49.531Z,11.73
2022-08-18T21:37:18.049Z,15.60
2022-08-18T21:39:50.729Z,12.27
2022-08-18T21:42:23.427Z,10.85
2022-08-18T21:44:54.073Z,10.43
2022-08-18T21:47:21.136Z,11.18
2022-08-18T21:49:58.195Z,12.23
2022-08-18T21:52:28.385Z,12.43
2022-08-18T21:54:58.156Z,13.50
2022-08-18T21:57:27.311Z,13.55
2022-08-18T22:00:16.956Z,15.18
2022-08-18T22:02:44.350Z,13.32
2022-08-18T22:05:12.487Z,13.32
2022-08-18T22:07:46.886Z,13.02
2022-08-18T22:10:47.457Z,12.07
2022-08-18T22:13:38.084Z,13.20
2022-08-18T22:16:24.505Z,13.82
2022-08-18T22:18:51.702Z,13.30
2022-08-18T22:21:51.239Z,14.73
2022-08-18T22:24:20.008Z,13.23
2022-08-18T22:27:05.479Z,15.25
2022-08-18T22:29:45.792Z,14.60
2022-08-18T22:32:13.585Z,12.48
2022-08-18T22:34:40.951Z,12.88
2022-08-18T22:37:18.322Z,15.25
2022-08-18T22:39:53.079Z,14.02
2022-08-18T22:42:21.309Z,13.23
2022-08-18T22:44:49.037Z,12.90
2022-08-18T22:47:16.522Z,12.82
2022-08-18T22:49:45.134Z,13.65
2022-08-18T22:52:18.972Z,13.38
2022-08-18T22:54:46.623Z,12.98
2022-08-18T22:57:17.939Z,13.05
2022-08-18T22:59:50.732Z,11.85
2022-08-18T23:02:22.099Z,13.45
2022-08-18T23:04:49.546Z,16.95
2022-08-18T23:07:22.350Z,13.32
2022-08-18T23:09:49.447Z,13.82
2022-08-18T23:12:17.010Z,12.95
2022-08-18T23:14:46.360Z,12.82
2022-08-18T23:17:14.179Z,12.02
2022-08-18T23:19:41.267Z,12.43
2022-08-18T23:22:12.335Z,13.82
2022-08-18T23:24:39.521Z,13.68
2022-08-18T23:27:06.800Z,14.02
2022-08-18T23:29:37.469Z,13.60
2022-08-18T23:32:05.721Z,13.73
2022-08-18T23:34:32.996Z,13.82
2022-08-18T23:37:01.425Z,13.00
2022-08-18T23:39:29.767Z,13.10
2022-08-18T23:41:57.134Z,15.07
2022-08-18T23:44:27.549Z,13.32
2022-08-18T23:46:55.377Z,16.00
2022-08-18T23:49:23.213Z,14.15
2022-08-18T23:51:51.234Z,15.38
2022-08-18T23:54:22.717Z,14.40
2022-08-18T23:56:50.573Z,14.50
2022-08-18T23:59:18.595Z,14.90
